Date,TemperatureHighF,TemperatureAvgF,TemperatureLowF,DewpointHighF,DewpointAvgF,DewpointLowF,HumidityHigh,HumidityAvg,HumidityLow,PressureMaxIn,PressureMinIn,WindSpeedMaxMPH,WindSpeedAvgMPH,GustSpeedMaxMPH,PrecipitationSumIn
2013-1-1,30.0,14.3,5.5,2.0,-7.1,-12.0,51,38,2,30.28,30.16,11,1,11,0.00
2013-1-2,36.5,20.9,5.9,17.3,2.9,-11.0,68,47,19,30.20,30.03,28,1,28,0.00
2013-1-3,35.7,22.3,9.6,21.0,8.4,-11.9,76,57,19,30.34,30.10,28,3,28,0.00
2013-1-4,36.5,23.4,9.1,17.4,9.5,-2.2,70,56,35,30.30,30.18,28,3,28,0.00
2013-1-5,35.9,29.6,20.1,31.8,22.4,13.5,85,74,59,30.21,29.95,28,3,28,0.00
2013-1-6,27.5,20.1,14.0,18.0,9.0,4.5,72,62,47,30.31,29.98,20,3,22,0.00
2013-1-7,42.4,29.7,17.0,22.4,16.1,7.6,68,58,35,30.29,30.05,24,3,24,0.00
2013-1-8,45.1,36.0,28.7,26.5,23.2,18.8,68,60,46,30.10,29.96,17,2,17,0.00
2013-1-9,46.5,37.3,29.1,28.9,25.2,21.6,74,62,45,30.47,30.02,20,2,20,0.00
2013-1-10,40.1,33.9,27.1,37.1,25.3,19.4,96,72,46,30.46,29.78,28,1,28,0.20
2013-1-11,54.5,47.2,38.1,51.6,43.3,14.8,96,87,22,29.79,29.61,29,5,29,0.00
2013-1-12,53.0,33.2,18.6,42.6,21.4,6.8,75,62,46,30.04,29.64,30,7,30,0.00
2013-1-13,18.6,14.0,8.9,12.0,-0.8,-5.3,75,51,40,30.28,29.93,23,3,23,0.00
2013-1-14,28.0,15.3,5.9,1.3,-4.1,-11.9,58,44,19,30.47,30.27,12,0,12,0.00
2013-1-15,35.0,20.2,11.1,11.6,-1.1,-11.9,68,43,19,30.41,30.11,10,0,10,0.00
2013-1-16,37.9,27.7,15.2,29.0,11.8,-0.6,75,51,32,30.11,29.86,44,2,44,0.00
2013-1-17,35.6,26.6,18.6,27.5,5.0,-11.0,72,43,19,30.41,30.09,18,2,18,0.00
2013-1-18,49.2,37.1,22.2,26.6,19.7,7.3,58,50,37,30.40,29.90,31,6,34,0.00
2013-1-19,52.5,40.9,18.8,29.1,22.4,-11.9,60,48,19,30.13,29.78,42,6,42,0.00
2013-1-20,18.6,12.4,6.9,1.7,-7.4,-12.0,57,39,19,30.36,30.13,26,4,26,0.00
2013-1-21,10.7,4.2,-1.1,-3.9,-10.7,-11.8,51,33,19,30.33,30.22,27,6,27,0.00
2013-1-22,11.3,4.8,-3.6,-11.8,-11.8,-11.8,44,28,19,30.41,30.31,23,3,23,0.00
2013-1-23,29.3,16.6,9.1,-4.2,-10.9,-12.0,39,22,3,30.42,30.11,37,4,37,0.00
2013-1-24,19.5,11.7,2.1,0.0,-10.7,-11.8,24,19,19,30.63,30.25,23,2,23,0.20
2013-1-25,36.5,23.7,13.1,9.6,-2.4,-11.9,58,32,19,30.26,29.99,29,5,30,0.00
2013-1-26,34.1,19.9,5.9,-0.1,-8.3,-11.9,51,30,19,30.40,30.24,21,3,21,0.00
2013-1-27,43.1,31.6,26.2,42.0,20.3,-8.4,96,67,21,30.29,29.81,23,5,23,0.22
2013-1-28,52.5,42.4,36.6,51.2,41.2,35.6,96,96,92,29.94,29.68,20,3,20,0.00
2013-1-29,60.4,50.4,35.2,56.8,48.0,34.2,96,92,83,29.69,29.46,29,6,29,0.61
2013-1-30,35.2,25.6,12.7,34.2,21.9,2.5,96,86,63,29.78,29.31,33,6,33,0.16
2013-1-31,15.4,6.7,-1.6,6.6,-6.8,-12.0,68,49,36,30.29,29.77,26,6,26,0.02